createdAt,value
2018-05-17T05:01:53.225Z,95148.02
2018-05-17T05:04:26.488Z,95152.02
2018-05-17T05:06:59.765Z,95154.78
2018-05-17T05:09:33.190Z,95160.20
2018-05-17T05:12:06.303Z,95152.44
2018-05-17T05:14:39.550Z,95158.46
2018-05-17T05:17:12.853Z,95157.03
2018-05-17T05:19:46.110Z,95153.57
2018-05-17T05:22:19.363Z,95159.62
2018-05-17T05:24:52.620Z,95157.91
2018-05-17T05:27:25.889Z,95162.73
2018-05-17T05:29:59.152Z,95165.00
2018-05-17T05:32:32.848Z,95171.90
2018-05-17T05:35:06.864Z,95162.17
2018-05-17T05:37:40.466Z,95171.70
2018-05-17T05:40:13.669Z,95166.38
2018-05-17T05:42:46.944Z,95177.27
2018-05-17T05:45:20.197Z,95167.97
2018-05-17T05:47:53.489Z,95174.11
2018-05-17T05:50:26.731Z,95178.87
2018-05-17T05:53:00.024Z,95177.78
2018-05-17T05:55:33.272Z,95169.91
2018-05-17T05:58:06.552Z,95177.31
2018-05-17T06:00:40.575Z,95170.30
2018-05-17T06:03:13.851Z,95169.48
2018-05-17T06:05:47.127Z,95169.62
2018-05-17T06:08:26.262Z,95169.45
2018-05-17T06:10:59.488Z,95169.55
2018-05-17T06:13:32.775Z,95174.98
2018-05-17T06:16:06.024Z,95169.11
2018-05-17T06:18:39.300Z,95183.86
2018-05-17T06:21:12.555Z,95182.98
2018-05-17T06:23:45.890Z,95187.31
2018-05-17T06:26:19.091Z,95179.84
2018-05-17T06:28:52.356Z,95181.58
2018-05-17T06:31:25.612Z,95174.84
2018-05-17T06:33:58.883Z,95182.05
2018-05-17T06:36:32.139Z,95179.62
2018-05-17T06:39:06.239Z,95183.00
2018-05-17T06:41:39.494Z,95198.92
2018-05-17T06:44:12.772Z,95192.05
2018-05-17T06:46:46.031Z,95190.22
2018-05-17T06:49:19.304Z,95204.66
2018-05-17T06:51:52.598Z,95203.15
2018-05-17T06:54:25.833Z,95208.16
2018-05-17T06:56:59.085Z,95208.80
2018-05-17T06:59:32.372Z,95210.84
2018-05-17T07:02:05.717Z,95209.91
2018-05-17T07:04:39.141Z,95203.66
2018-05-17T07:07:13.370Z,95205.81
2018-05-17T07:09:46.674Z,95204.59
2018-05-17T07:12:19.926Z,95200.20
2018-05-17T07:14:53.210Z,95203.38
2018-05-17T07:17:28.406Z,95210.35
2018-05-17T07:20:01.673Z,95213.73
2018-05-17T07:22:35.693Z,95209.83
2018-05-17T07:25:09.732Z,95211.88
2018-05-17T07:27:42.996Z,95220.38
2018-05-17T07:30:17.047Z,95224.38
2018-05-17T07:32:50.300Z,95224.69
2018-05-17T07:35:23.596Z,95212.76
2018-05-17T07:37:57.620Z,95214.19
2018-05-17T07:40:30.887Z,95208.48
2018-05-17T07:43:04.139Z,95214.89
2018-05-17T07:45:37.430Z,95215.27
2018-05-17T07:48:10.681Z,95215.25
2018-05-17T07:50:44.751Z,95227.69
2018-05-17T07:53:18.008Z,95219.91
2018-05-17T07:55:51.280Z,95221.04
2018-05-17T07:58:25.317Z,95236.31
2018-05-17T08:00:58.611Z,95223.55
2018-05-17T08:03:31.870Z,95227.84
2018-05-17T08:06:05.141Z,95226.47
2018-05-17T08:08:38.401Z,95221.34
2018-05-17T08:11:11.708Z,95218.21
2018-05-17T08:13:44.961Z,95223.03
2018-05-17T08:16:18.245Z,95228.38
2018-05-17T08:18:51.491Z,95230.72
2018-05-17T08:21:24.793Z,95233.32
2018-05-17T08:23:58.049Z,95222.92
2018-05-17T08:26:31.331Z,95231.09
2018-05-17T08:29:04.624Z,95237.86
2018-05-17T08:31:37.884Z,95239.63
2018-05-17T08:34:11.141Z,95235.04
2018-05-17T08:36:44.473Z,95243.64
2018-05-17T08:39:17.700Z,95245.28
2018-05-17T08:41:51.009Z,95240.38
2018-05-17T08:44:24.265Z,95239.25
2018-05-17T08:46:57.541Z,95248.45
2018-05-17T08:49:30.792Z,95237.67
2018-05-17T08:52:04.068Z,95248.14
2018-05-17T08:54:37.330Z,95248.59
2018-05-17T08:57:10.595Z,95248.14
2018-05-17T08:59:43.933Z,95248.55
2018-05-17T09:02:17.232Z,95251.93
2018-05-17T09:04:50.606Z,95255.22
2018-05-17T09:07:24.060Z,95262.58
2018-05-17T09:09:58.296Z,95261.99
2018-05-17T09:12:31.768Z,95259.83
2018-05-17T09:15:05.245Z,95254.30
2018-05-17T09:17:39.501Z,95256.56
2018-05-17T09:20:12.920Z,95266.00
2018-05-17T09:22:46.341Z,95260.77
2018-05-17T09:25:19.591Z,95257.29
2018-05-17T09:27:52.864Z,95263.00
2018-05-17T09:30:26.880Z,95264.88
2018-05-17T09:33:00.163Z,95268.70
2018-05-17T09:35:34.233Z,95269.24
2018-05-17T09:38:08.224Z,95263.95
2018-05-17T09:40:41.476Z,95271.58
2018-05-17T09:43:14.743Z,95267.06
2018-05-17T09:45:48.000Z,95253.02
2018-05-17T09:48:21.282Z,95256.94
2018-05-17T09:50:54.539Z,95266.73
2018-05-17T09:53:27.815Z,95259.56
2018-05-17T09:56:01.064Z,95263.66
2018-05-17T09:58:34.344Z,95263.37
2018-05-17T10:01:07.617Z,95265.85
2018-05-17T10:03:40.882Z,95281.80
2018-05-17T10:06:14.141Z,95273.05
2018-05-17T10:08:47.497Z,95289.45
2018-05-17T10:11:21.440Z,95272.02
2018-05-17T10:13:54.715Z,95277.19
2018-05-17T10:16:28.736Z,95285.75
2018-05-17T10:19:02.776Z,95284.67
2018-05-17T10:21:36.024Z,95284.00
2018-05-17T10:24:10.063Z,95275.89
2018-05-17T10:26:43.341Z,95272.13
2018-05-17T10:29:16.625Z,95267.78
2018-05-17T10:31:49.883Z,95264.38
2018-05-17T10:34:23.165Z,95279.23
2018-05-17T10:36:56.463Z,95281.51
2018-05-17T10:39:29.739Z,95279.97
2018-05-17T10:42:02.995Z,95279.16
2018-05-17T10:44:36.279Z,95269.29
2018-05-17T10:47:09.543Z,95273.42
2018-05-17T10:49:42.816Z,95271.31
2018-05-17T10:52:16.071Z,95282.09
2018-05-17T10:54:50.128Z,95278.81
2018-05-17T10:57:23.380Z,95273.31
2018-05-17T10:59:56.673Z,95289.08
2018-05-17T11:02:29.977Z,95277.32
2018-05-17T11:05:03.325Z,95270.61
2018-05-17T11:07:36.575Z,95274.66
2018-05-17T11:10:09.959Z,95266.84
2018-05-17T11:12:43.207Z,95272.31
2018-05-17T11:15:16.557Z,95270.64
2018-05-17T11:17:49.762Z,95262.71
2018-05-17T11:20:23.051Z,95260.11
2018-05-17T11:22:56.307Z,95276.22
2018-05-17T11:25:29.696Z,95264.09
2018-05-17T11:28:02.959Z,95262.75
2018-05-17T11:30:36.265Z,95260.09
2018-05-17T11:33:09.580Z,95261.31
2018-05-17T11:35:42.843Z,95269.64
2018-05-17T11:38:16.097Z,95261.64
2018-05-17T11:40:50.477Z,95265.31
2018-05-17T11:43:23.735Z,95269.63
2018-05-17T11:45:57.024Z,95254.09
2018-05-17T11:48:30.309Z,95251.48
2018-05-17T11:51:03.555Z,95260.02
2018-05-17T11:53:36.830Z,95255.61
2018-05-17T11:56:10.104Z,95250.96
2018-05-17T11:58:43.377Z,95250.52
2018-05-17T12:01:16.667Z,95259.07
2018-05-17T12:03:49.913Z,95250.76
2018-05-17T12:06:23.216Z,95268.47
2018-05-17T12:08:56.477Z,95268.84
2018-05-17T12:11:29.864Z,95263.88
2018-05-17T12:14:03.131Z,95272.12
2018-05-17T12:16:36.401Z,95260.81
2018-05-17T12:19:09.659Z,95265.97
2018-05-17T12:21:42.969Z,95281.30
2018-05-17T12:24:16.323Z,95280.09
2018-05-17T12:26:49.713Z,95273.40
2018-05-17T12:29:23.731Z,95274.44
2018-05-17T12:31:57.039Z,95269.68
2018-05-17T12:34:30.284Z,95271.84
2018-05-17T12:37:03.756Z,95285.81
2018-05-17T12:39:36.907Z,95270.85
2018-05-17T12:42:10.223Z,95267.11
2018-05-17T12:44:43.500Z,95267.64
2018-05-17T12:47:16.903Z,95266.42
2018-05-17T12:49:50.163Z,95271.63
2018-05-17T12:52:23.435Z,95264.11
2018-05-17T12:54:56.704Z,95276.16
2018-05-17T12:57:30.015Z,95271.61
2018-05-17T13:00:03.270Z,95264.86
2018-05-17T13:02:36.563Z,95261.08
2018-05-17T13:05:27.485Z,95251.44
2018-05-17T13:08:00.799Z,95250.23
2018-05-17T13:10:34.076Z,95243.59
2018-05-17T13:13:08.591Z,95240.02
2018-05-17T13:18:15.904Z,95236.98
2018-05-17T13:20:49.160Z,95249.71
2018-05-17T13:23:23.223Z,95266.83
2018-05-17T13:25:56.481Z,95260.15
2018-05-17T13:28:30.546Z,95272.08
2018-05-17T13:31:03.794Z,95287.72
2018-05-17T13:33:37.107Z,95317.03
2018-05-17T13:36:10.356Z,95299.62
2018-05-17T13:38:43.642Z,95302.33
2018-05-17T13:41:16.884Z,95303.49
2018-05-17T13:43:50.183Z,95324.02
2018-05-17T13:46:23.444Z,95309.53
2018-05-17T13:48:57.597Z,95304.86
2018-05-17T13:51:30.852Z,95307.81
2018-05-17T13:54:04.904Z,95311.35
2018-05-17T13:56:38.172Z,95312.07
2018-05-17T13:59:12.208Z,95310.99
2018-05-17T14:01:45.476Z,95317.73
2018-05-17T14:04:19.513Z,95328.75
2018-05-17T14:06:52.777Z,95325.44
2018-05-17T14:09:26.947Z,95325.84
2018-05-17T14:12:00.206Z,95319.89
2018-05-17T14:14:33.480Z,95316.52
2018-05-17T14:17:06.875Z,95324.85
2018-05-17T14:19:40.144Z,95327.52
2018-05-17T14:22:13.651Z,95318.15
2018-05-17T14:24:47.906Z,95322.25
2018-05-17T14:27:22.571Z,95322.66
2018-05-17T14:29:55.876Z,95319.59
2018-05-17T14:32:31.339Z,95320.95
2018-05-17T14:35:10.716Z,95318.43
2018-05-17T14:37:43.980Z,95320.17
2018-05-17T14:40:17.283Z,95329.64
2018-05-17T14:42:50.694Z,95335.77
2018-05-17T14:45:25.930Z,95336.62
2018-05-17T14:47:59.585Z,95328.81
2018-05-17T14:50:33.075Z,95332.20
2018-05-17T14:53:06.332Z,95321.25
2018-05-17T14:55:39.621Z,95318.07
2018-05-17T14:58:13.396Z,95325.69
2018-05-17T15:00:46.669Z,95317.70
2018-05-17T15:03:19.942Z,95328.92
2018-05-17T15:05:53.220Z,95327.61
2018-05-17T15:08:26.539Z,95327.39
2018-05-17T15:10:59.753Z,95327.70
2018-05-17T15:13:33.029Z,95324.75
2018-05-17T15:16:07.456Z,95327.20
2018-05-17T15:18:41.485Z,95326.70
2018-05-17T15:21:14.784Z,95325.55
2018-05-17T15:23:48.059Z,95319.91
2018-05-17T15:26:21.349Z,95313.75
2018-05-17T15:28:54.608Z,95318.79
2018-05-17T15:31:27.902Z,95320.03
2018-05-17T15:34:01.236Z,95314.16
2018-05-17T15:36:34.451Z,95319.20
2018-05-17T15:39:07.724Z,95320.02
2018-05-17T15:41:41.091Z,95325.06
2018-05-17T15:44:14.273Z,95321.77
2018-05-17T15:46:47.552Z,95326.06
2018-05-17T15:49:20.806Z,95324.54
2018-05-17T15:51:54.092Z,95317.24
2018-05-17T15:54:27.349Z,95322.28
2018-05-17T15:57:00.635Z,95321.75
2018-05-17T15:59:33.901Z,95328.84
2018-05-17T16:02:07.187Z,95326.78
2018-05-17T16:04:40.449Z,95328.65
2018-05-17T16:07:14.493Z,95334.41
2018-05-17T16:09:47.764Z,95329.59
2018-05-17T16:12:21.067Z,95330.81
2018-05-17T16:14:54.443Z,95330.88
2018-05-17T16:17:28.377Z,95326.96
2018-05-17T16:20:01.648Z,95326.53
2018-05-17T16:22:34.931Z,95328.30
2018-05-17T16:25:08.951Z,95328.99
2018-05-17T16:27:42.243Z,95328.45
2018-05-17T16:30:16.281Z,95337.42
2018-05-17T16:32:49.637Z,95328.87
2018-05-17T16:35:22.840Z,95332.25
2018-05-17T16:38:15.754Z,95333.89
2018-05-17T16:40:49.022Z,95336.16
2018-05-17T16:43:22.306Z,95330.00
2018-05-17T16:45:55.570Z,95335.44
2018-05-17T16:48:29.702Z,95341.39
2018-05-17T16:51:02.915Z,95349.31
2018-05-17T16:53:36.189Z,95346.34
2018-05-17T16:56:09.471Z,95352.73
2018-05-17T16:58:43.578Z,95357.95
2018-05-17T17:01:16.868Z,95356.61
2018-05-17T17:03:50.916Z,95351.59
2018-05-17T17:06:24.173Z,95358.27
2018-05-17T17:08:57.473Z,95358.08
2018-05-17T17:11:30.745Z,95353.23
2018-05-17T17:14:04.017Z,95354.36
2018-05-17T17:16:37.293Z,95356.83
2018-05-17T17:19:10.602Z,95356.53
2018-05-17T17:21:43.865Z,95359.16
2018-05-17T17:24:17.177Z,95357.75
2018-05-17T17:26:50.431Z,95354.58
2018-05-17T17:29:23.740Z,95357.04
2018-05-17T17:31:57.776Z,95361.66
2018-05-17T17:34:31.075Z,95360.44
2018-05-17T17:37:04.348Z,95363.09
2018-05-17T17:39:37.646Z,95366.41
2018-05-17T17:42:10.913Z,95362.08
2018-05-17T17:44:44.964Z,95362.78
2018-05-17T17:47:18.216Z,95363.94
2018-05-17T17:49:52.504Z,95363.52
2018-05-17T17:52:25.720Z,95363.92
2018-05-17T17:54:59.017Z,95360.85
2018-05-17T17:57:32.288Z,95365.88
2018-05-17T18:00:05.569Z,95370.10
2018-05-17T18:02:38.824Z,95374.83
2018-05-17T18:05:12.150Z,95381.31
2018-05-17T18:07:46.152Z,95378.43
2018-05-17T18:10:19.451Z,95378.96
2018-05-17T18:12:52.709Z,95377.93
2018-05-17T18:15:25.987Z,95384.40
2018-05-17T18:18:00.242Z,95379.25
2018-05-17T18:20:33.533Z,95385.33
2018-05-17T18:23:06.801Z,95389.94
2018-05-17T18:25:40.080Z,95390.03
2018-05-17T18:28:13.455Z,95391.28
2018-05-17T18:30:46.741Z,95396.73
2018-05-17T18:33:20.019Z,95399.20
2018-05-17T18:35:53.391Z,95394.27
2018-05-17T18:38:26.796Z,95401.47
2018-05-17T18:41:00.881Z,95402.80
2018-05-17T18:43:34.922Z,95409.29
2018-05-17T18:46:08.420Z,95407.55
2018-05-17T18:48:41.688Z,95406.92
2018-05-17T18:51:15.093Z,95415.88
2018-05-17T18:53:48.353Z,95420.91
2018-05-17T18:56:21.804Z,95420.50
2018-05-17T18:58:55.077Z,95423.28
2018-05-17T19:01:28.411Z,95428.13
2018-05-17T19:04:01.670Z,95426.77
2018-05-17T19:06:35.736Z,95437.05
2018-05-17T19:09:09.011Z,95442.71
2018-05-17T19:11:42.295Z,95446.91
2018-05-17T19:14:15.588Z,95450.70
2018-05-17T19:16:48.892Z,95450.10
2018-05-17T19:19:22.157Z,95447.84
2018-05-17T19:21:56.227Z,95455.86
2018-05-17T19:24:29.499Z,95454.81
2018-05-17T19:27:02.793Z,95456.97
2018-05-17T19:29:36.061Z,95459.03
2018-05-17T19:32:09.344Z,95450.70
2018-05-17T19:34:42.762Z,95457.05
2018-05-17T19:37:16.124Z,95457.57
2018-05-17T19:39:49.373Z,95463.73
2018-05-17T19:42:22.686Z,95462.30
2018-05-17T19:44:55.975Z,95464.66
2018-05-17T19:47:29.257Z,95476.24
2018-05-17T19:50:02.519Z,95478.38
2018-05-17T19:52:35.815Z,95480.45
2018-05-17T19:55:09.088Z,95486.82
2018-05-17T19:57:43.161Z,95487.77
2018-05-17T20:00:17.283Z,95494.03
2018-05-17T20:02:50.561Z,95501.95
2018-05-17T20:05:23.828Z,95502.25
2018-05-17T20:07:58.059Z,95503.69
2018-05-17T20:10:31.324Z,95505.13
2018-05-17T20:13:05.374Z,95510.38
2018-05-17T20:15:38.647Z,95506.57
2018-05-17T20:18:12.685Z,95508.94
2018-05-17T20:20:45.960Z,95506.16
2018-05-17T20:23:19.444Z,95501.51
2018-05-17T20:25:53.475Z,95502.53
2018-05-17T20:28:26.947Z,95497.91
2018-05-17T20:31:00.986Z,95509.63
2018-05-17T20:33:34.383Z,95509.83
2018-05-17T20:36:08.417Z,95515.17
2018-05-17T20:38:41.704Z,95511.95
2018-05-17T20:41:14.964Z,95523.05
2018-05-17T20:43:49.007Z,95516.67
2018-05-17T20:46:22.272Z,95510.41
2018-05-17T20:48:56.320Z,95514.14
2018-05-17T20:51:29.589Z,95513.63
2018-05-17T20:54:02.905Z,95520.17
2018-05-17T20:56:36.167Z,95522.32
2018-05-17T20:59:10.217Z,95514.52
2018-05-17T21:01:43.477Z,95516.98
2018-05-17T21:04:16.895Z,95513.05
2018-05-17T21:06:50.155Z,95526.73
2018-05-17T21:09:24.210Z,95514.52
2018-05-17T21:11:57.485Z,95511.23
2018-05-17T21:14:30.764Z,95512.64
2018-05-17T21:17:04.035Z,95507.23
2018-05-17T21:19:37.313Z,95517.59
2018-05-17T21:22:10.581Z,95516.74
2018-05-17T21:24:43.869Z,95506.92
2018-05-17T21:27:17.184Z,95502.70
2018-05-17T21:29:51.198Z,95508.11
2018-05-17T21:32:24.443Z,95502.47
2018-05-17T21:34:57.736Z,95509.24
2018-05-17T21:37:31.009Z,95511.05
2018-05-17T21:40:05.069Z,95504.21
2018-05-17T21:42:38.336Z,95505.14
2018-05-17T21:45:11.629Z,95497.84
2018-05-17T21:47:44.886Z,95501.61
2018-05-17T21:50:18.162Z,95503.77
2018-05-17T21:52:51.425Z,95507.19
2018-05-17T21:55:24.789Z,95494.73
2018-05-17T21:57:57.975Z,95495.55
2018-05-17T22:00:31.251Z,95500.17
2018-05-17T22:03:04.576Z,95510.75
2018-05-17T22:05:38.628Z,95500.38
2018-05-17T22:08:22.424Z,95497.20
2018-05-17T22:10:56.767Z,95506.09
2018-05-17T22:13:30.032Z,95503.10
2018-05-17T22:16:03.317Z,95503.25
2018-05-17T22:18:36.581Z,95494.73
2018-05-17T22:21:09.860Z,95503.25
2018-05-17T22:23:43.116Z,95501.03
2018-05-17T22:26:17.169Z,95500.20
2018-05-17T22:28:50.437Z,95509.45
